sensor_id;sensor_type;location;lat;lon;timestamp;temperature;humidity
21928;DHT22;11128;51.096;17.190;2023-12-22T00:02:53;6.00;17.10
21928;DHT22;11128;51.096;17.190;2023-12-22T00:07:55;5.90;20.00
21928;DHT22;11128;51.096;17.190;2023-12-22T00:12:59;5.90;1.00
21928;DHT22;11128;51.096;17.190;2023-12-22T00:18:00;5.80;1.00
21928;DHT22;11128;51.096;17.190;2023-12-22T00:23:02;7.40;1.00
21928;DHT22;11128;51.096;17.190;2023-12-22T00:28:03;5.90;1.00
21928;DHT22;11128;51.096;17.190;2023-12-22T00:33:04;5.80;1.00
21928;DHT22;11128;51.096;17.190;2023-12-22T00:38:06;5.80;1.00
21928;DHT22;11128;51.096;17.190;2023-12-22T00:43:07;6.30;1.00
21928;DHT22;11128;51.096;17.190;2023-12-22T00:48:08;5.60;1.00
21928;DHT22;11128;51.096;17.190;2023-12-22T00:53:10;5.60;1.00
21928;DHT22;11128;51.096;17.190;2023-12-22T00:58:11;5.60;1.00
21928;DHT22;11128;51.096;17.190;2023-12-22T01:03:12;5.60;1.00
21928;DHT22;11128;51.096;17.190;2023-12-22T01:08:14;5.50;1.00
21928;DHT22;11128;51.096;17.190;2023-12-22T01:13:16;5.50;1.00
21928;DHT22;11128;51.096;17.190;2023-12-22T01:18:17;5.40;1.00
21928;DHT22;11128;51.096;17.190;2023-12-22T01:23:19;5.40;1.00
21928;DHT22;11128;51.096;17.190;2023-12-22T01:28:20;5.40;1.00
21928;DHT22;11128;51.096;17.190;2023-12-22T01:33:21;5.30;1.00
21928;DHT22;11128;51.096;17.190;2023-12-22T01:38:23;5.30;1.00
21928;DHT22;11128;51.096;17.190;2023-12-22T01:43:24;5.30;1.00
21928;DHT22;11128;51.096;17.190;2023-12-22T01:48:26;5.60;1.00
21928;DHT22;11128;51.096;17.190;2023-12-22T01:53:28;5.60;1.00
21928;DHT22;11128;51.096;17.190;2023-12-22T01:58:30;5.10;1.00
21928;DHT22;11128;51.096;17.190;2023-12-22T02:03:34;5.10;1.00
21928;DHT22;11128;51.096;17.190;2023-12-22T02:08:35;5.00;1.00
21928;DHT22;11128;51.096;17.190;2023-12-22T02:13:37;5.00;1.00
21928;DHT22;11128;51.096;17.190;2023-12-22T02:18:39;5.60;1.00
21928;DHT22;11128;51.096;17.190;2023-12-22T02:23:46;5.00;1.00
21928;DHT22;11128;51.096;17.190;2023-12-22T02:28:48;5.00;99.90
21928;DHT22;11128;51.096;17.190;2023-12-22T02:33:52;4.90;1.00
21928;DHT22;11128;51.096;17.190;2023-12-22T02:38:56;4.90;1.00
21928;DHT22;11128;51.096;17.190;2023-12-22T02:43:59;4.90;1.00
21928;DHT22;11128;51.096;17.190;2023-12-22T02:49:01;5.00;1.00
21928;DHT22;11128;51.096;17.190;2023-12-22T02:54:02;4.60;1.00
21928;DHT22;11128;51.096;17.190;2023-12-22T02:59:04;4.50;1.00
21928;DHT22;11128;51.096;17.190;2023-12-22T03:04:06;4.40;1.00
21928;DHT22;11128;51.096;17.190;2023-12-22T03:09:07;4.70;1.00
21928;DHT22;11128;51.096;17.190;2023-12-22T03:14:09;4.20;1.00
21928;DHT22;11128;51.096;17.190;2023-12-22T03:19:11;4.50;1.00
21928;DHT22;11128;51.096;17.190;2023-12-22T03:24:12;4.10;1.00
21928;DHT22;11128;51.096;17.190;2023-12-22T03:29:14;4.00;1.00
21928;DHT22;11128;51.096;17.190;2023-12-22T03:34:15;4.00;99.90
21928;DHT22;11128;51.096;17.190;2023-12-22T03:39:17;4.10;99.90
21928;DHT22;11128;51.096;17.190;2023-12-22T03:44:18;4.00;99.90
21928;DHT22;11128;51.096;17.190;2023-12-22T03:49:19;4.00;1.00
21928;DHT22;11128;51.096;17.190;2023-12-22T03:54:21;4.00;1.00
21928;DHT22;11128;51.096;17.190;2023-12-22T03:59:22;3.90;1.00
21928;DHT22;11128;51.096;17.190;2023-12-22T04:04:23;3.80;1.00
21928;DHT22;11128;51.096;17.190;2023-12-22T04:09:28;3.80;1.00
21928;DHT22;11128;51.096;17.190;2023-12-22T04:14:29;4.70;1.00
21928;DHT22;11128;51.096;17.190;2023-12-22T04:19:30;3.90;1.00
21928;DHT22;11128;51.096;17.190;2023-12-22T04:24:31;3.90;1.00
21928;DHT22;11128;51.096;17.190;2023-12-22T04:29:33;4.20;1.00
21928;DHT22;11128;51.096;17.190;2023-12-22T04:34:34;3.90;1.00
21928;DHT22;11128;51.096;17.190;2023-12-22T04:39:35;3.90;1.00
21928;DHT22;11128;51.096;17.190;2023-12-22T04:44:37;3.90;1.00
21928;DHT22;11128;51.096;17.190;2023-12-22T04:49:38;4.30;1.00
21928;DHT22;11128;51.096;17.190;2023-12-22T04:54:39;5.90;1.00
21928;DHT22;11128;51.096;17.190;2023-12-22T04:59:41;3.80;1.00
21928;DHT22;11128;51.096;17.190;2023-12-22T05:04:42;3.90;1.00
21928;DHT22;11128;51.096;17.190;2023-12-22T05:09:44;3.90;1.00
21928;DHT22;11128;51.096;17.190;2023-12-22T05:14:45;3.90;99.90
21928;DHT22;11128;51.096;17.190;2023-12-22T05:19:47;4.30;99.90
21928;DHT22;11128;51.096;17.190;2023-12-22T05:24:48;3.90;99.90
21928;DHT22;11128;51.096;17.190;2023-12-22T05:29:50;3.90;99.90
21928;DHT22;11128;51.096;17.190;2023-12-22T05:34:51;3.90;99.90
21928;DHT22;11128;51.096;17.190;2023-12-22T05:39:53;3.90;99.90
21928;DHT22;11128;51.096;17.190;2023-12-22T05:44:54;3.90;99.90
21928;DHT22;11128;51.096;17.190;2023-12-22T05:49:56;3.90;99.90
21928;DHT22;11128;51.096;17.190;2023-12-22T05:54:58;3.90;99.90
21928;DHT22;11128;51.096;17.190;2023-12-22T06:00:00;3.90;1.00
21928;DHT22;11128;51.096;17.190;2023-12-22T06:05:01;3.90;99.90
21928;DHT22;11128;51.096;17.190;2023-12-22T06:10:03;3.90;99.90
21928;DHT22;11128;51.096;17.190;2023-12-22T06:15:05;3.90;99.90
21928;DHT22;11128;51.096;17.190;2023-12-22T06:20:07;3.90;99.90
21928;DHT22;11128;51.096;17.190;2023-12-22T06:25:08;3.90;1.00
21928;DHT22;11128;51.096;17.190;2023-12-22T06:30:11;4.10;1.00
21928;DHT22;11128;51.096;17.190;2023-12-22T06:35:12;3.90;1.00
21928;DHT22;11128;51.096;17.190;2023-12-22T06:40:13;3.90;1.00
21928;DHT22;11128;51.096;17.190;2023-12-22T06:45:15;3.90;1.00
21928;DHT22;11128;51.096;17.190;2023-12-22T06:50:17;4.80;1.00
21928;DHT22;11128;51.096;17.190;2023-12-22T06:55:18;3.90;1.00
21928;DHT22;11128;51.096;17.190;2023-12-22T07:00:20;4.40;1.00
21928;DHT22;11128;51.096;17.190;2023-12-22T07:10:23;3.80;1.00
21928;DHT22;11128;51.096;17.190;2023-12-22T07:15:25;3.80;1.00
21928;DHT22;11128;51.096;17.190;2023-12-22T07:20:27;4.00;1.00
21928;DHT22;11128;51.096;17.190;2023-12-22T07:25:28;3.80;1.00
21928;DHT22;11128;51.096;17.190;2023-12-22T07:30:30;3.80;1.00
21928;DHT22;11128;51.096;17.190;2023-12-22T07:35:31;3.90;1.00
21928;DHT22;11128;51.096;17.190;2023-12-22T07:40:33;3.90;1.00
21928;DHT22;11128;51.096;17.190;2023-12-22T07:45:34;4.00;1.00
21928;DHT22;11128;51.096;17.190;2023-12-22T07:50:36;4.00;1.00
21928;DHT22;11128;51.096;17.190;2023-12-22T07:55:37;4.00;1.00
21928;DHT22;11128;51.096;17.190;2023-12-22T08:00:40;4.00;1.00
21928;DHT22;11128;51.096;17.190;2023-12-22T08:05:41;4.00;19.70
21928;DHT22;11128;51.096;17.190;2023-12-22T08:10:42;4.00;6.80
21928;DHT22;11128;51.096;17.190;2023-12-22T08:16:01;4.90;5.80
21928;DHT22;11128;51.096;17.190;2023-12-22T08:21:09;4.00;1.00
21928;DHT22;11128;51.096;17.190;2023-12-22T08:26:11;4.00;1.00
21928;DHT22;11128;51.096;17.190;2023-12-22T08:31:13;4.10;1.00
21928;DHT22;11128;51.096;17.190;2023-12-22T08:36:15;4.10;1.00
21928;DHT22;11128;51.096;17.190;2023-12-22T08:41:16;4.50;1.00
21928;DHT22;11128;51.096;17.190;2023-12-22T08:46:17;4.50;1.00
21928;DHT22;11128;51.096;17.190;2023-12-22T08:51:19;4.40;1.00
21928;DHT22;11128;51.096;17.190;2023-12-22T08:56:22;4.50;1.00
21928;DHT22;11128;51.096;17.190;2023-12-22T09:01:23;4.80;1.00
21928;DHT22;11128;51.096;17.190;2023-12-22T09:06:25;4.30;1.00
21928;DHT22;11128;51.096;17.190;2023-12-22T09:11:27;4.30;1.00
21928;DHT22;11128;51.096;17.190;2023-12-22T09:16:28;4.20;1.00
21928;DHT22;11128;51.096;17.190;2023-12-22T09:21:30;5.20;1.00
21928;DHT22;11128;51.096;17.190;2023-12-22T09:26:31;4.10;1.00
21928;DHT22;11128;51.096;17.190;2023-12-22T09:31:34;4.20;1.00
21928;DHT22;11128;51.096;17.190;2023-12-22T09:36:35;4.60;1.00
21928;DHT22;11128;51.096;17.190;2023-12-22T09:41:37;5.00;1.00
21928;DHT22;11128;51.096;17.190;2023-12-22T09:46:40;6.00;99.90
21928;DHT22;11128;51.096;17.190;2023-12-22T09:51:43;5.70;99.90
21928;DHT22;11128;51.096;17.190;2023-12-22T09:56:46;5.70;99.90
21928;DHT22;11128;51.096;17.190;2023-12-22T10:01:48;5.60;99.90
21928;DHT22;11128;51.096;17.190;2023-12-22T10:06:53;5.30;1.00
21928;DHT22;11128;51.096;17.190;2023-12-22T10:11:58;5.20;1.00
21928;DHT22;11128;51.096;17.190;2023-12-22T10:17:01;4.90;1.00
21928;DHT22;11128;51.096;17.190;2023-12-22T10:22:03;4.80;1.00
21928;DHT22;11128;51.096;17.190;2023-12-22T10:27:05;4.80;1.00
21928;DHT22;11128;51.096;17.190;2023-12-22T10:32:07;5.20;1.00
21928;DHT22;11128;51.096;17.190;2023-12-22T10:37:10;4.90;1.00
21928;DHT22;11128;51.096;17.190;2023-12-22T10:42:14;5.00;99.90
21928;DHT22;11128;51.096;17.190;2023-12-22T10:47:17;5.10;99.90
21928;DHT22;11128;51.096;17.190;2023-12-22T10:52:19;5.20;99.90
21928;DHT22;11128;51.096;17.190;2023-12-22T10:57:21;5.20;99.90
21928;DHT22;11128;51.096;17.190;2023-12-22T11:02:27;5.20;99.90
21928;DHT22;11128;51.096;17.190;2023-12-22T11:07:29;5.20;99.90
21928;DHT22;11128;51.096;17.190;2023-12-22T11:12:34;5.10;99.90
21928;DHT22;11128;51.096;17.190;2023-12-22T11:17:39;5.00;99.90
21928;DHT22;11128;51.096;17.190;2023-12-22T11:22:44;4.90;99.90
21928;DHT22;11128;51.096;17.190;2023-12-22T11:27:46;4.80;99.90
21928;DHT22;11128;51.096;17.190;2023-12-22T11:32:49;4.80;99.90
21928;DHT22;11128;51.096;17.190;2023-12-22T11:37:53;4.80;99.90
21928;DHT22;11128;51.096;17.190;2023-12-22T11:42:56;5.10;99.90
21928;DHT22;11128;51.096;17.190;2023-12-22T11:48:06;5.40;99.90
21928;DHT22;11128;51.096;17.190;2023-12-22T11:53:17;5.70;99.90
21928;DHT22;11128;51.096;17.190;2023-12-22T12:03:55;5.80;99.90
21928;DHT22;11128;51.096;17.190;2023-12-22T12:08:58;5.80;99.90
21928;DHT22;11128;51.096;17.190;2023-12-22T12:14:07;5.60;99.90
21928;DHT22;11128;51.096;17.190;2023-12-22T12:19:12;5.70;99.90
21928;DHT22;11128;51.096;17.190;2023-12-22T12:24:14;6.00;99.90
21928;DHT22;11128;51.096;17.190;2023-12-22T12:29:17;6.20;99.90
21928;DHT22;11128;51.096;17.190;2023-12-22T12:34:18;6.00;99.90
21928;DHT22;11128;51.096;17.190;2023-12-22T12:39:22;5.80;99.90
21928;DHT22;11128;51.096;17.190;2023-12-22T12:44:29;5.70;99.90
21928;DHT22;11128;51.096;17.190;2023-12-22T12:49:33;5.60;99.90
21928;DHT22;11128;51.096;17.190;2023-12-22T12:54:35;6.30;99.90
21928;DHT22;11128;51.096;17.190;2023-12-22T12:59:36;5.60;99.90
21928;DHT22;11128;51.096;17.190;2023-12-22T13:04:38;5.70;99.90
21928;DHT22;11128;51.096;17.190;2023-12-22T13:09:40;5.80;99.90
21928;DHT22;11128;51.096;17.190;2023-12-22T13:14:43;6.20;99.90
21928;DHT22;11128;51.096;17.190;2023-12-22T13:19:44;5.80;99.90
21928;DHT22;11128;51.096;17.190;2023-12-22T13:24:56;5.90;99.90
21928;DHT22;11128;51.096;17.190;2023-12-22T13:29:58;5.80;99.90
21928;DHT22;11128;51.096;17.190;2023-12-22T13:34:59;5.70;99.90
21928;DHT22;11128;51.096;17.190;2023-12-22T13:40:01;5.70;99.90
21928;DHT22;11128;51.096;17.190;2023-12-22T13:45:11;5.60;99.90
21928;DHT22;11128;51.096;17.190;2023-12-22T13:50:14;5.40;99.90
21928;DHT22;11128;51.096;17.190;2023-12-22T13:55:18;5.40;99.90
21928;DHT22;11128;51.096;17.190;2023-12-22T14:05:22;5.70;99.90
21928;DHT22;11128;51.096;17.190;2023-12-22T14:10:23;5.00;99.90
21928;DHT22;11128;51.096;17.190;2023-12-22T14:15:25;4.90;99.90
21928;DHT22;11128;51.096;17.190;2023-12-22T14:20:30;4.90;99.90
21928;DHT22;11128;51.096;17.190;2023-12-22T14:25:31;4.80;99.90
21928;DHT22;11128;51.096;17.190;2023-12-22T14:30:33;4.80;99.90
21928;DHT22;11128;51.096;17.190;2023-12-22T14:35:36;4.70;99.90
21928;DHT22;11128;51.096;17.190;2023-12-22T14:40:37;4.60;99.90
21928;DHT22;11128;51.096;17.190;2023-12-22T14:45:39;5.00;99.90
21928;DHT22;11128;51.096;17.190;2023-12-22T14:50:40;4.60;99.90
21928;DHT22;11128;51.096;17.190;2023-12-22T14:55:42;4.50;99.90
21928;DHT22;11128;51.096;17.190;2023-12-22T15:00:43;4.80;99.90
21928;DHT22;11128;51.096;17.190;2023-12-22T15:05:44;4.40;99.90
21928;DHT22;11128;51.096;17.190;2023-12-22T15:10:46;4.40;99.90
21928;DHT22;11128;51.096;17.190;2023-12-22T15:15:47;4.40;99.90
21928;DHT22;11128;51.096;17.190;2023-12-22T15:20:49;4.30;99.90
21928;DHT22;11128;51.096;17.190;2023-12-22T15:25:57;4.30;99.90
21928;DHT22;11128;51.096;17.190;2023-12-22T15:30:59;4.30;99.90
21928;DHT22;11128;51.096;17.190;2023-12-22T15:36:00;4.30;99.90
21928;DHT22;11128;51.096;17.190;2023-12-22T15:41:02;4.20;99.90
21928;DHT22;11128;51.096;17.190;2023-12-22T15:46:07;4.20;99.90
21928;DHT22;11128;51.096;17.190;2023-12-22T15:51:12;4.70;99.90
21928;DHT22;11128;51.096;17.190;2023-12-22T15:56:14;4.50;99.90
21928;DHT22;11128;51.096;17.190;2023-12-22T16:01:16;4.10;99.90
21928;DHT22;11128;51.096;17.190;2023-12-22T16:06:18;4.00;99.90
21928;DHT22;11128;51.096;17.190;2023-12-22T16:11:19;4.20;99.90
21928;DHT22;11128;51.096;17.190;2023-12-22T16:16:22;4.00;99.90
21928;DHT22;11128;51.096;17.190;2023-12-22T16:21:23;4.00;99.90
21928;DHT22;11128;51.096;17.190;2023-12-22T16:26:24;4.00;99.90
21928;DHT22;11128;51.096;17.190;2023-12-22T16:31:25;4.90;99.90
21928;DHT22;11128;51.096;17.190;2023-12-22T16:36:26;4.60;99.90
21928;DHT22;11128;51.096;17.190;2023-12-22T16:41:27;4.00;99.90
21928;DHT22;11128;51.096;17.190;2023-12-22T16:46:29;3.90;99.90
21928;DHT22;11128;51.096;17.190;2023-12-22T16:51:30;3.90;99.90
21928;DHT22;11128;51.096;17.190;2023-12-22T16:56:31;3.90;99.90
21928;DHT22;11128;51.096;17.190;2023-12-22T17:01:33;3.80;99.90
21928;DHT22;11128;51.096;17.190;2023-12-22T17:06:34;4.60;99.90
21928;DHT22;11128;51.096;17.190;2023-12-22T17:11:35;4.80;99.90
21928;DHT22;11128;51.096;17.190;2023-12-22T17:16:37;3.70;99.90
21928;DHT22;11128;51.096;17.190;2023-12-22T17:21:39;4.00;99.90
21928;DHT22;11128;51.096;17.190;2023-12-22T17:26:42;4.20;99.90
21928;DHT22;11128;51.096;17.190;2023-12-22T17:31:43;3.60;99.90
21928;DHT22;11128;51.096;17.190;2023-12-22T17:36:45;3.50;99.90
21928;DHT22;11128;51.096;17.190;2023-12-22T17:41:49;3.40;99.90
21928;DHT22;11128;51.096;17.190;2023-12-22T17:46:50;3.40;99.90
21928;DHT22;11128;51.096;17.190;2023-12-22T17:51:51;3.40;1.00
21928;DHT22;11128;51.096;17.190;2023-12-22T17:56:53;3.40;1.00
21928;DHT22;11128;51.096;17.190;2023-12-22T18:01:54;3.40;1.00
21928;DHT22;11128;51.096;17.190;2023-12-22T18:06:56;3.40;1.00
21928;DHT22;11128;51.096;17.190;2023-12-22T18:11:57;4.20;99.90
21928;DHT22;11128;51.096;17.190;2023-12-22T18:16:59;3.50;99.90
21928;DHT22;11128;51.096;17.190;2023-12-22T18:22:00;3.30;99.90
21928;DHT22;11128;51.096;17.190;2023-12-22T18:27:02;3.50;99.90
21928;DHT22;11128;51.096;17.190;2023-12-22T18:32:04;3.30;99.90
21928;DHT22;11128;51.096;17.190;2023-12-22T18:37:06;3.20;99.90
21928;DHT22;11128;51.096;17.190;2023-12-22T18:42:07;3.60;99.90
21928;DHT22;11128;51.096;17.190;2023-12-22T18:47:08;3.30;99.90
21928;DHT22;11128;51.096;17.190;2023-12-22T18:52:10;3.20;99.90
21928;DHT22;11128;51.096;17.190;2023-12-22T18:57:11;3.60;99.90
21928;DHT22;11128;51.096;17.190;2023-12-22T19:02:12;3.20;99.90
21928;DHT22;11128;51.096;17.190;2023-12-22T19:07:13;3.30;99.90
21928;DHT22;11128;51.096;17.190;2023-12-22T19:12:15;4.10;99.90
21928;DHT22;11128;51.096;17.190;2023-12-22T19:17:16;3.30;99.90
21928;DHT22;11128;51.096;17.190;2023-12-22T19:22:18;3.30;99.90
21928;DHT22;11128;51.096;17.190;2023-12-22T19:27:20;3.30;99.90
21928;DHT22;11128;51.096;17.190;2023-12-22T19:32:21;3.30;99.90
21928;DHT22;11128;51.096;17.190;2023-12-22T19:37:23;3.30;99.90
21928;DHT22;11128;51.096;17.190;2023-12-22T19:42:24;3.30;99.90
21928;DHT22;11128;51.096;17.190;2023-12-22T19:47:26;3.30;99.90
21928;DHT22;11128;51.096;17.190;2023-12-22T19:52:27;3.30;99.90
21928;DHT22;11128;51.096;17.190;2023-12-22T19:57:32;3.30;99.90
21928;DHT22;11128;51.096;17.190;2023-12-22T20:02:34;3.30;99.90
21928;DHT22;11128;51.096;17.190;2023-12-22T20:07:37;4.00;99.90
21928;DHT22;11128;51.096;17.190;2023-12-22T20:12:38;3.20;99.90
21928;DHT22;11128;51.096;17.190;2023-12-22T20:17:43;3.20;1.00
21928;DHT22;11128;51.096;17.190;2023-12-22T20:22:46;3.20;1.00
21928;DHT22;11128;51.096;17.190;2023-12-22T20:27:47;3.90;1.00
21928;DHT22;11128;51.096;17.190;2023-12-22T20:32:49;3.80;1.00
21928;DHT22;11128;51.096;17.190;2023-12-22T20:37:50;3.20;99.90
21928;DHT22;11128;51.096;17.190;2023-12-22T20:42:52;3.70;99.90
21928;DHT22;11128;51.096;17.190;2023-12-22T20:47:53;4.10;99.90
21928;DHT22;11128;51.096;17.190;2023-12-22T20:52:54;3.20;99.90
21928;DHT22;11128;51.096;17.190;2023-12-22T20:57:56;3.20;99.90
21928;DHT22;11128;51.096;17.190;2023-12-22T21:02:57;3.20;99.90
21928;DHT22;11128;51.096;17.190;2023-12-22T21:07:59;4.20;99.90
21928;DHT22;11128;51.096;17.190;2023-12-22T21:13:01;3.30;99.90
21928;DHT22;11128;51.096;17.190;2023-12-22T21:18:02;3.30;99.90
21928;DHT22;11128;51.096;17.190;2023-12-22T21:23:05;3.20;99.90
21928;DHT22;11128;51.096;17.190;2023-12-22T21:28:06;3.30;99.90
21928;DHT22;11128;51.096;17.190;2023-12-22T21:33:08;3.20;99.90
21928;DHT22;11128;51.096;17.190;2023-12-22T21:38:11;3.30;99.90
21928;DHT22;11128;51.096;17.190;2023-12-22T21:43:12;4.70;99.90
21928;DHT22;11128;51.096;17.190;2023-12-22T21:48:14;3.20;99.90
21928;DHT22;11128;51.096;17.190;2023-12-22T21:53:15;3.20;99.90
21928;DHT22;11128;51.096;17.190;2023-12-22T21:58:17;3.20;99.90
21928;DHT22;11128;51.096;17.190;2023-12-22T22:03:18;3.20;99.90
21928;DHT22;11128;51.096;17.190;2023-12-22T22:08:19;3.20;99.90
21928;DHT22;11128;51.096;17.190;2023-12-22T22:13:21;3.20;99.90
21928;DHT22;11128;51.096;17.190;2023-12-22T22:18:22;3.20;99.90
21928;DHT22;11128;51.096;17.190;2023-12-22T22:23:24;3.20;99.90
21928;DHT22;11128;51.096;17.190;2023-12-22T22:28:26;3.20;99.90
21928;DHT22;11128;51.096;17.190;2023-12-22T22:33:27;3.20;99.90
21928;DHT22;11128;51.096;17.190;2023-12-22T22:38:29;3.20;99.90
21928;DHT22;11128;51.096;17.190;2023-12-22T22:43:30;3.30;99.90
21928;DHT22;11128;51.096;17.190;2023-12-22T22:48:32;3.20;99.90
21928;DHT22;11128;51.096;17.190;2023-12-22T22:53:34;3.20;99.90
21928;DHT22;11128;51.096;17.190;2023-12-22T22:58:35;3.10;99.90
21928;DHT22;11128;51.096;17.190;2023-12-22T23:03:37;3.10;99.90
21928;DHT22;11128;51.096;17.190;2023-12-22T23:08:39;3.10;99.90
21928;DHT22;11128;51.096;17.190;2023-12-22T23:13:40;3.10;99.90
21928;DHT22;11128;51.096;17.190;2023-12-22T23:18:42;3.10;99.90
21928;DHT22;11128;51.096;17.190;2023-12-22T23:23:44;3.10;99.90
21928;DHT22;11128;51.096;17.190;2023-12-22T23:28:45;3.00;99.90
21928;DHT22;11128;51.096;17.190;2023-12-22T23:33:46;3.10;99.90
21928;DHT22;11128;51.096;17.190;2023-12-22T23:38:48;3.10;99.90
21928;DHT22;11128;51.096;17.190;2023-12-22T23:43:49;3.10;99.90
21928;DHT22;11128;51.096;17.190;2023-12-22T23:48:51;3.10;99.90
21928;DHT22;11128;51.096;17.190;2023-12-22T23:53:52;3.10;99.90
21928;DHT22;11128;51.096;17.190;2023-12-22T23:58:54;3.10;99.90
